Aztec, NM

4:53 PM MDT on May 04, 2015 (GMT -0600)
Crouch Mesa | | Change Station
CLOSE
Current Station
Personal Weather Station
Location: Aztec, NM
Elevation: 5876 ft
Nearby Weather Stations

Elev 5876 ft 36.77 °N, 108.06 °W | Updated 3 seconds ago

Mostly Cloudy
Mostly Cloudy
59.9 °F
Feels Like 59.9 °F
N
29.8
Wind Variable Wind from South
Gusts 31.1 mph

Today
High -- | Low -- °F
--% Chance of Precip.
Yesterday
High -- | Low -- °F
Precip. -- in
6:15 AM 8:03 PM
Full, 99% visible
Pressure 29.82 in
Visibility 10.0 miles
Clouds Few 4800 ft
Scattered Clouds 7000 ft
Mostly Cloudy 10000 ft
Dew Point 45 °F
Humidity 58%
Rainfall 0.00 in
Snow Depth Not available.
UV 4 out of 12
Pollen 6.50 out of 12
Air Quality Not available.
Flu Activity Local Activity
METAR KFMN 042153Z 32008KT 10SM -RA FEW048 SCT070 BKN100 18/07 A2993 RMK AO2 RAB08E18B44 SLP098 P0000 T01780067

More Conditions Fewer Conditions

Pressure 29.82 in
Visibility 10.0 miles
Clouds Few 4800 ft
Scattered Clouds 7000 ft
Mostly Cloudy 10000 ft
Dew Point 45 °F
Humidity 58%
Rainfall 0.00 in
Snow Depth Not available.
UV 4 out of 12
Pollen 6.50 out of 12
Air Quality Not available.
Flu Activity Local Activity
METAR KFMN 042153Z 32008KT 10SM -RA FEW048 SCT070 BKN100 18/07 A2993 RMK AO2 RAB08E18B44 SLP098 P0000 T01780067

More Conditions Fewer Conditions

Nepal has a long way to go to dig out and rebuild from a devastating earthquake. We have teamed up with several charities and organizations to make contributing to the relief effort as easy as possible.
How you can help: Portlight Strategies | Red Cross
Nowcast | as of 4:02 PM MDT on May 4, 2015

Scattered showers and thunderstorms with gusty winds...cloud to ground lightning and some small hail will continue to track north over western zones late this afternoon and into the evening hours. Through 600 PM MDT...the strongest storms will produce hail that covers the ground as well as local downpours producing a quick quarter of an inch of rain with runoffs. Thunderstorms will move from Sandoval County into Rio Arriba and another cluster will move from El Morro to the Gallup area.

×

10-Day Weather Forecast

Almanac

Astronomy

May. 04, 2015 Rise Set
Actual Time
Civil Twilight
Nautical Twilight
Astronomical Twilight
Moon
Length of Visible Light
Length of Day
Tomorrow will be .
, % of the Moon is Illuminated

Today's Extremes

State Highs State Lows

Community

WunderPhotos

Upload Photos

1,818,720 photos uploaded!

WunderBlogs® & News

Nearby

Air Quality

  Air Quality AQ Index Pollutant
Not available.

Snow Depth

Station Depth Elevation

Earthquake Activity

City Distance Mag. Time & Date
Minimum magnitude displayed is 2.5.

Coastal Water Temperatures

Place Temperature

Stations

Nearby Weather Stations

Station Location Temp. Windchill Dew Point Humidity Wind Precip. Elev Updated Type